Highlands Peak, California Weather observations

Data are for observation ending at time listed.
 Day   Time    Ave.   Ave.  Ave.  Vector   Max.   Stn.    Total    Solar   Ave.  
  of    of     Air    Rel.  Wind   Wind    Wind   Baro.  Precip.   Rad.    Soil  
Year   Day     Temp.  Hum.  Speed  Dir.    Gust   Pres.                    Temp. 
2014   (PST)    F      %     mph   deg.    mph     mb.     in.     W/m2     F   
------------------------------------------------------------------------------
 113    7:50   49.3    31    4.5   286      8.0   931.1    0.00     498    58.2
 113    8:00   49.5    32    5.3   285      9.2   931.1    0.00     564    58.4
 113    8:10   50.3    32    1.5   287      4.2   931.1    0.00     604    58.4
 113    8:20   50.8    32    3.0   268      4.8   931.1    0.00     637    58.5
 113    8:30   51.4    33    1.8   283      5.5   931.1    0.00     635    58.5
 113    8:40   52.4    34    2.0    27      5.7   931.1    0.00     687    58.7
 113    8:50   53.8    32    1.8   333      4.7   931.1    0.00     736    58.9
 113    9:00   54.1    35    3.1   262      6.4   931.2    0.00     753    59.0
 113    9:10   53.1    37    2.8   285      6.7   931.2    0.00     792    59.1
 113    9:20   53.5    39    4.7   246      7.3   931.3    0.00     805    59.3
 113    9:30   53.1    38    4.7   267      8.0   931.3    0.00     843    59.5
 113    9:40   53.1    35    3.2   276      5.6   931.3    0.00     865    59.6
 113    9:50   53.8    35    3.1   261      5.2   931.4    0.00     883    59.8
 113   10:00   53.7    43    3.1   260      5.8   931.5    0.00     883    60.0
 113   10:10   54.5    43    1.7   248      4.6   931.6    0.00     898    60.3
 113   10:20   55.7    44    4.2   272      7.4   931.6    0.00     896    60.5
 113   10:30   55.1    46    4.8   258      7.9   931.7    0.00     934    60.7
 113   10:40   55.3    46    5.3   268      9.6   931.8    0.00     964    61.0
 113   10:50   55.5    40    3.6   268      6.6   931.8    0.00     993    61.2
 113   11:00   56.6    37    4.7   259      7.6   931.8    0.00    1006    61.4
 113   11:10   56.7    36    7.0   270     10.3   931.8    0.00    1022    61.7
 113   11:20   56.1    37    5.0   257      9.2   931.9    0.00    1032    61.9
 113   11:30   57.0    42    5.3   258      9.5   931.9    0.00    1028    62.2
 113   11:40   57.8    43    4.1   250      7.6   932.0    0.00    1014    62.4
 113   11:50   59.1    40    3.5   225      8.5   931.9    0.00     997    62.6
 113   12:00   59.1    40    3.5   224      7.9   931.8    0.00    1005    62.9
 113   12:10   58.7    43    4.7   206      8.7   931.8    0.00     958    63.2
 113   12:20   58.8    43    4.7   242      8.8   931.7    0.00     946    63.5
 113   12:30   59.1    43    4.9   266      9.3   931.7    0.00     990    63.7
 113   12:40   58.4    41    5.6   275      8.0   931.7    0.00     989    64.0
 113   12:50   57.8    42    4.8   274      9.4   931.6    0.00    1027    64.2
 113   13:00   58.9    42    4.9   265      8.2   931.6    0.00     975    64.5
 113   13:10   59.5    42    6.3   270     10.2   931.6    0.00     991    64.9
 113   13:20   59.5    42    6.6   264      9.9   931.6    0.00     992    65.3
 113   13:30   58.9    41    6.0   265      9.3   931.6    0.00     899    65.7
 113   13:40   59.6    42    6.5   268      9.3   931.6    0.00     939    66.0
 113   13:50   59.7    39    4.9   265      8.0   931.6    0.00     874    66.4
 113   14:00   60.3    40    5.9   273     10.2   931.5    0.00     901    66.7
 113   14:10   60.2    39    6.0   267      8.6   931.6    0.00     883    67.1
 113   14:20   60.0    34    4.6   254      9.3   931.5    0.00     863    67.4
 113   14:30   61.3    31    5.2   245     10.4   931.4    0.00     836    67.8
 113   14:40   61.2    29    5.4   264      8.8   931.3    0.00     767    68.2
 113   14:50   60.7    30    5.5   268      8.7   931.3    0.00     786    68.5
 113   15:00   61.4    31    5.8   276      9.6   931.3    0.00     773    68.8
 113   15:10   61.9    28    4.7   270      8.6   931.2    0.00     733    69.1
 113   15:20   61.6    30    4.9   269      8.5   931.1    0.00     711    69.4
 113   15:30   60.9    28    4.9   253      8.7   931.1    0.00     681    69.7
 113   15:40   61.9    28    4.9   265      8.5   931.0    0.00     642    70.0
 113   15:50   62.2    27    4.7   263      7.5   930.9    0.00     611    70.2
 113   16:00   61.9    28    5.1   246      8.3   930.9    0.00     573    70.4
 113   16:10   61.7    30    5.5   264      9.0   930.8    0.00     536    70.6
 113   16:20   61.4    32    4.8   260      7.8   930.8    0.00     498    70.8
 113   16:30   61.6    32    4.8   258      8.6   930.8    0.00     461    71.0
 113   16:40   62.2    32    3.9   264      6.4   930.7    0.00     422    71.2
 113   16:50   62.0    32    4.5   256      7.7   930.7    0.00     384    71.3
 113   17:00   62.3    33    5.3   259      8.2   930.6    0.00     351    71.3
 113   17:10   62.4    37    4.7   272      7.9   930.5    0.00     311    71.4
 113   17:20   62.1    37    3.9   272      6.0   930.5    0.00     272    71.5
 113   17:30   61.4    37    2.5   273      5.6   930.5    0.00     234    71.6
 113   17:40   61.1    39    2.4   283      5.3   930.5    0.00     197    71.7
 113   17:50   60.3    42    3.7   293      7.7   930.5    0.00     164    71.7
 113   18:00   61.2    40    2.4   317      5.0   930.5    0.00     132    71.7
 113   18:10   60.3    36    2.4    47      7.7   930.5    0.00     102    71.7
 113   18:20   59.1    37    4.7    34     10.7   930.4    0.00      74    71.7
 113   18:30   58.1    34    7.5    67     17.4   930.3    0.00      49    71.5
 113   18:40   57.6    34   10.8    67     18.9   930.2    0.00      27    71.2
 113   18:50   56.8    34    5.5    84     12.2   930.4    0.00       9    71.0
 113   19:00   56.2    34    8.4    78     17.2   930.4    0.00       2    70.8
 113   19:10   56.2    34   12.8    66     21.0   930.5    0.00       0    70.5
 113   19:20   56.0    35   13.5    69     24.0   930.5    0.00       0    70.1
 113   19:30   56.0    36   15.4    74     26.7   930.6    0.00       0    69.6
 113   19:40   55.7    38   12.6    68     23.0   930.7    0.00       0    69.2
 113   19:50   55.5    39   14.5    73     21.3   930.7    0.00       0    68.8
 113   20:00   55.9    38   13.2    74     22.9   930.7    0.00       0    68.4
 113   20:10   55.8    38    9.1   103     16.1   930.8    0.00       0    67.7
 113   20:20   55.4    39    5.5    99      8.2   930.9    0.00       0    67.0
 113   20:30   55.7    37    4.0    93      6.9   931.0    0.00       0    67.4
 113   20:40   54.8    39    5.7    87     12.9   930.9    0.00       0    67.5
 113   20:50   54.9    39    7.2    88     14.1   931.0    0.00       0    67.4
 113   21:00   54.7    40    7.7    93     12.5   931.0    0.00       0    67.2
 113   21:10   54.9    39    7.5    86     12.9   931.1    0.00       0    67.0
 113   21:20   54.9    38    6.8    84      9.7   931.1    0.00       0    66.8
 113   21:30   55.2    37    6.2    83      9.2   931.1    0.00       0    66.6
 113   21:40   55.3    35    6.9    97      9.3   931.1    0.00       0    66.4
 113   21:50   55.8    34    6.5    97      9.2   931.1    0.00       0    65.9
 113   22:00   55.9    34    6.9    79     10.3   931.1    0.00       0    66.0
 113   22:10   55.2    36    7.1    63     10.2   931.2    0.00       0    66.2
 113   22:20   54.5    38    7.5    62     10.3   931.3    0.00       0    66.2
 113   22:30   54.8    36    8.8    74     16.9   931.4    0.00       0    65.8
 113   22:40   55.6    34    7.6    79     11.2   931.3    0.00       0    65.6
 113   22:50   55.4    34    7.4    98     14.1   931.1    0.00       0    64.5
 113   23:00   55.1    35    9.2   100     13.4   930.9    0.00       0    63.9
 113   23:10   55.3    34    5.3    86     12.0   931.0    0.00       0    63.9
 113   23:20   54.0    38    3.8   295      7.7   931.1    0.00       0    64.5
 113   23:30   54.9    35    3.2    80      7.1   931.0    0.00       0    64.6
 113   23:40   55.1    34    4.4    64      8.6   931.0    0.00       0    64.4
 113   23:50   55.6    32    3.9    34      9.4   931.0    0.00       0    64.5
 114    0:00   56.1    31    5.7    78     13.2   930.9    0.00       0    64.4
 114    0:10   56.6    30    5.9    56     13.5   930.9    0.00       0    64.4
 114    0:20   56.0    32    4.4    81     10.3   930.9    0.00       0    64.3
 114    0:30   55.7    34    8.2    90     19.4   930.8    0.00       0    63.8
 114    0:40   55.8    34    4.5    83     10.2   930.8    0.00       0    63.9
 114    0:50   55.9    34    5.9    82     11.5   930.7    0.00       0    63.7
 114    1:00   55.8    34    5.0    94     11.0   930.7    0.00       0    63.5
 114    1:10   55.8    35    6.8    84     14.2   930.6    0.00       0    63.4
 114    1:20   55.9    35    8.2    95     13.7   930.5    0.00       0    63.1
 114    1:30   55.8    36    6.6   102     12.6   930.5    0.00       0    62.8
 114    1:40   55.9    35    6.8    88     11.9   930.5    0.00       0    62.6
 114    1:50   55.8    36    5.1    68      8.0   930.5    0.00       0    62.9
 114    2:00   55.3    38    6.8    86     16.1   930.4    0.00       0    62.8
 114    2:10   55.1    38    6.9    95     13.0   930.3    0.00       0    62.4
 114    2:20   55.5    35    7.7    98     16.1   930.2    0.00       0    62.0
 114    2:30   55.9    34    4.4   103      9.6   930.2    0.00       0    62.1
 114    2:40   55.6    35    1.5   280      5.6   930.3    0.00       0    62.3
 114    2:50   54.0    43    4.0   277      7.6   930.4    0.00       0    62.4
 114    3:00   53.4    42    3.1   143      5.7   930.4    0.00       0    62.4
 114    3:10   54.3    38    3.6    89      8.8   930.3    0.00       0    62.3
 114    3:20   55.5    36    2.1   305      4.6   930.3    0.00       0    62.2
 114    3:30   54.9    38    2.6   289      5.0   930.3    0.00       0    62.2
 114    3:40   54.8    38    0.5    76      2.0   930.3    0.00       0    62.2
 114    3:50   55.4    37    4.2    86      7.5   930.3    0.00       0    61.8
 114    4:00   54.2    42    3.2   196      6.5   930.4    0.00       0    61.9
 114    4:10   53.4    42    3.1   134      6.6   930.4    0.00       0    61.6
 114    4:20   54.0    41    3.2   131      6.8   930.4    0.00       0    61.4
 114    4:30   53.1    42    4.8   187      6.4   930.5    0.00       0    61.1
 114    4:40   53.7    41    2.4   218      4.8   930.6    0.00       0    61.4
 114    4:50   54.7    40    2.5    82      5.1   930.5    0.00       0    61.2
 114    5:00   54.6    41    1.0    71      5.0   930.5    0.00       0    61.3
 114    5:10   54.5    44    4.1   118      9.1   930.4    0.00       0    61.2
 114    5:20   54.8    44    3.8   124      8.5   930.6    0.00       2    60.9
 114    5:30   54.4    45    6.5   103     10.6   930.7    0.00       7    60.8
 114    5:40   54.5    45    5.0    84      7.7   930.8    0.00      12    60.8
 114    5:50   54.6    45    5.4    88      8.3   930.8    0.00      18    60.9
 114    6:00   54.7    45    4.3    90      7.1   930.9    0.00      22    60.9
 114    6:10   54.2    45    1.4   111      5.2   930.9    0.00      27    60.7
 114    6:20   55.2    44    1.5    88      3.9   931.0    0.00     102    60.8
 114    6:30   56.9    40    0.5   218      2.0   931.1    0.00     199    60.7
 114    6:40   57.2    41    1.5   214      3.6   931.3    0.00     239    60.7
 114    6:50   56.5    41    3.4   182      5.5   931.4    0.00     270    60.7
 114    7:00   56.5    42    4.4   178      5.8   931.4    0.00     316    60.6
 114    7:10   56.4    41    4.2   197      5.8   931.5    0.00     356    60.5
 114    7:20   57.3    41    2.7   193      4.6   931.6    0.00     395    60.5
 114    7:30   57.6    41    4.2   183      5.2   931.7    0.00     433    60.5
 114    7:40   58.1    39    2.7   191      4.7   931.8    0.00     471    60.5

Return to Highlands Peak graphs page.


Western Regional Climate Center,wrcc@dri.edu